KIJX

Details ICAO KIJX
Name JACKSONVILLE MUNI
Region United States
Timezone America/Chicago (UTC-5.0)
Plans Departing 3
Arriving 8
Stats Elevation 624 ft / 190 m (AMSL)
Location 39.774627° -90.238248°
Runways 2
Magnetic Variation 1.659° W
Sunrise 2018-05-20 10:43:27 UTC / 2018-05-20 05:43:27 Local
Sunset 2018-05-21 01:14:23 UTC / 2018-05-20 20:14:23 Local
Advertisement - Login to hide

Runways

ID Width Length Bearing (true) Bearing (mag) Surface Threshold Offset Overrun Length
04 75 ft / 23 m 4,001 ft / 1,219 m 44.89° 46.55° Asphalt 0 ft / 0 m 0 ft / 0 m
13 75 ft / 23 m 4,998 ft / 1,523 m 135.27° 136.93° Asphalt 0 ft / 0 m 0 ft / 0 m
22 75 ft / 23 m 4,001 ft / 1,219 m 224.89° 226.55° Asphalt 0 ft / 0 m 0 ft / 0 m
31 75 ft / 23 m 4,998 ft / 1,523 m 315.28° 316.94° Asphalt 0 ft / 0 m 0 ft / 0 m

Map

Weather


0- 5 10 15 20 25 30 35+ Temperature / ° C

Clouds and Precipitation
Forecast for 2018-05-20 12:00 UTC. Updated an hour ago

Ground ~20,000 ft ~40,000 ft Winds

METAR

KIJX 201235Z AUTO 15006KT 7SM RA SCT075 OVC100 18/16 A3007 RMK AO2 LTG DSNT SE P0004 T01750157

TAF

Not found

Frequencies

Unicom 122.80 MHz CTAF/UNICOM
Approach 118.45 MHz SPRINGFIELD APP/DEP
Clearance 118.45 MHz CLNC DEL
Approach 126.15 MHz SPRINGFIELD APP/DEP
Warning: Do not use this data for real-world aviation or navigation. No guarantee of current accuracy is given.